createdAt,value
2022-11-06T00:02:21.661Z,15.50
2022-11-06T00:05:42.469Z,15.50
2022-11-06T00:08:44.702Z,15.50
2022-11-06T00:11:48.044Z,15.50
2022-11-06T00:14:50.264Z,15.50
2022-11-06T00:17:52.851Z,15.50
2022-11-06T00:20:55.046Z,15.50
2022-11-06T00:23:59.300Z,15.50
2022-11-06T00:27:01.477Z,15.50
2022-11-06T00:30:06.112Z,15.50
2022-11-06T00:33:08.253Z,15.50
2022-11-06T00:36:16.776Z,15.50
2022-11-06T00:39:19.074Z,15.50
2022-11-06T00:42:21.347Z,15.50
2022-11-06T00:45:24.524Z,15.40
2022-11-06T00:48:27.769Z,15.40
2022-11-06T00:51:41.241Z,15.40
2022-11-06T00:54:43.392Z,15.40
2022-11-06T00:57:45.519Z,15.40
2022-11-06T01:00:47.724Z,15.40
2022-11-06T01:04:17.513Z,15.40
2022-11-06T01:07:19.636Z,15.40
2022-11-06T01:10:21.805Z,15.40
2022-11-06T01:13:24.025Z,15.40
2022-11-06T01:16:26.935Z,15.40
2022-11-06T01:19:29.125Z,15.40
2022-11-06T01:22:31.283Z,15.40
2022-11-06T01:25:33.499Z,15.40
2022-11-06T01:28:35.825Z,15.40
2022-11-06T01:31:38.072Z,15.40
2022-11-06T01:34:40.427Z,15.40
2022-11-06T01:37:43.138Z,15.40
2022-11-06T01:40:47.363Z,15.40
2022-11-06T01:43:49.627Z,15.30
2022-11-06T01:46:51.854Z,15.40
2022-11-06T01:50:03.210Z,15.40
2022-11-06T01:53:05.708Z,15.30
2022-11-06T01:56:11.026Z,15.30
2022-11-06T01:59:16.031Z,15.30
2022-11-06T02:02:18.924Z,15.30
2022-11-06T02:05:21.442Z,15.30
2022-11-06T02:08:24.423Z,15.30
2022-11-06T02:11:26.602Z,15.30
2022-11-06T02:14:48.414Z,15.30
2022-11-06T02:18:18.843Z,15.30
2022-11-06T02:21:33.261Z,15.30
2022-11-06T02:24:52.124Z,15.30
2022-11-06T02:28:25.659Z,15.30
2022-11-06T02:31:32.101Z,15.30
2022-11-06T02:34:38.515Z,15.30
2022-11-06T02:37:45.075Z,15.30
2022-11-06T02:40:52.715Z,15.30
2022-11-06T02:43:57.624Z,15.20
2022-11-06T02:47:05.291Z,15.20
2022-11-06T02:50:15.552Z,15.20
2022-11-06T02:53:22.275Z,15.30
2022-11-06T02:56:28.747Z,15.30
2022-11-06T03:00:03.714Z,15.20
2022-11-06T03:03:26.625Z,15.20
2022-11-06T03:07:24.819Z,15.20
2022-11-06T03:10:33.123Z,15.20
2022-11-06T03:13:43.902Z,15.20
2022-11-06T03:16:46.116Z,15.20
2022-11-06T03:20:00.703Z,15.20
2022-11-06T03:23:33.849Z,15.20
2022-11-06T03:26:45.245Z,15.20
2022-11-06T03:29:57.875Z,15.20
2022-11-06T03:33:10.880Z,15.10
2022-11-06T03:36:23.575Z,15.20
2022-11-06T03:39:32.171Z,15.20
2022-11-06T03:42:36.330Z,15.20
2022-11-06T03:45:41.433Z,15.10
2022-11-06T03:48:57.671Z,15.10
2022-11-06T03:52:34.821Z,15.10
2022-11-06T03:55:48.258Z,15.10
2022-11-06T03:58:51.050Z,15.10
2022-11-06T04:01:56.000Z,15.10
2022-11-06T04:05:02.859Z,15.10
2022-11-06T04:08:26.360Z,15.10
2022-11-06T04:11:52.758Z,15.10
2022-11-06T04:14:56.564Z,15.10
2022-11-06T04:17:58.793Z,15.10
2022-11-06T04:21:33.824Z,15.10
2022-11-06T04:25:00.369Z,15.10
2022-11-06T04:28:29.420Z,15.10
2022-11-06T04:31:43.842Z,15.10
2022-11-06T04:35:05.280Z,15.10
2022-11-06T04:38:23.674Z,15.00
2022-11-06T04:41:36.824Z,15.00
2022-11-06T04:44:41.710Z,15.00
2022-11-06T04:47:45.943Z,15.00
2022-11-06T04:50:55.735Z,15.00
2022-11-06T04:53:58.149Z,15.00
2022-11-06T04:57:01.733Z,15.00
2022-11-06T05:00:04.872Z,15.00
2022-11-06T05:03:07.089Z,15.00
2022-11-06T05:06:09.711Z,15.00
2022-11-06T05:09:11.903Z,15.00
2022-11-06T05:12:14.057Z,15.00
2022-11-06T05:15:16.226Z,15.00
2022-11-06T05:18:18.327Z,15.00
2022-11-06T05:21:38.854Z,15.00
2022-11-06T05:24:40.964Z,15.00
2022-11-06T05:27:43.104Z,15.00
2022-11-06T05:30:45.872Z,14.90
2022-11-06T05:33:48.016Z,14.90
2022-11-06T05:36:50.222Z,14.90
2022-11-06T05:39:52.432Z,14.90
2022-11-06T05:42:54.823Z,14.90
2022-11-06T05:45:57.045Z,14.90
2022-11-06T05:48:59.188Z,14.90
2022-11-06T05:52:01.469Z,14.90
2022-11-06T05:55:04.922Z,14.90
2022-11-06T05:58:08.202Z,14.90
2022-11-06T06:01:11.648Z,14.90
2022-11-06T06:04:13.810Z,14.90
2022-11-06T06:07:15.998Z,14.90
2022-11-06T06:10:18.322Z,14.90
2022-11-06T06:13:20.426Z,14.90
2022-11-06T06:16:22.641Z,14.80
2022-11-06T06:19:24.826Z,14.80
2022-11-06T06:22:26.995Z,14.80
2022-11-06T06:25:30.524Z,14.80
2022-11-06T06:28:33.043Z,14.80
2022-11-06T06:31:35.308Z,14.80
2022-11-06T06:34:37.517Z,14.80
2022-11-06T06:37:39.971Z,14.80
2022-11-06T06:40:42.111Z,14.80
2022-11-06T06:43:47.345Z,14.80
2022-11-06T06:46:49.474Z,14.80
2022-11-06T06:49:51.699Z,14.80
2022-11-06T06:52:58.417Z,14.80
2022-11-06T06:56:01.962Z,14.80
2022-11-06T06:59:04.192Z,14.80
2022-11-06T07:02:06.577Z,14.80
2022-11-06T07:05:08.922Z,14.80
2022-11-06T07:08:11.420Z,14.70
2022-11-06T07:11:13.932Z,14.80
2022-11-06T07:14:16.127Z,14.80
2022-11-06T07:17:18.284Z,14.70
2022-11-06T07:20:20.410Z,14.70
2022-11-06T07:23:22.618Z,14.70
2022-11-06T07:26:24.848Z,14.70
2022-11-06T07:29:26.990Z,14.70
2022-11-06T07:32:29.196Z,14.70
2022-11-06T07:35:33.250Z,14.80
2022-11-06T07:38:36.591Z,14.70
2022-11-06T07:41:38.873Z,14.70
2022-11-06T07:44:40.966Z,14.70
2022-11-06T07:47:43.637Z,14.70
2022-11-06T07:50:45.768Z,14.70
2022-11-06T07:53:48.029Z,14.70
2022-11-06T07:56:50.159Z,14.70
2022-11-06T07:59:52.308Z,14.70
2022-11-06T08:02:54.681Z,14.70
2022-11-06T08:05:58.002Z,14.70
2022-11-06T08:09:00.132Z,14.70
2022-11-06T08:12:02.568Z,14.70
2022-11-06T08:15:05.140Z,14.70
2022-11-06T08:18:11.908Z,14.70
2022-11-06T08:21:14.345Z,14.70
2022-11-06T08:24:21.700Z,14.70
2022-11-06T08:27:24.340Z,14.70
2022-11-06T08:30:27.642Z,14.70
2022-11-06T08:33:29.879Z,14.70
2022-11-06T08:36:32.413Z,14.70
2022-11-06T08:39:34.660Z,14.70
2022-11-06T08:42:37.225Z,14.70
2022-11-06T08:45:41.515Z,14.70
2022-11-06T08:48:43.701Z,14.70
2022-11-06T08:51:45.993Z,14.70
2022-11-06T08:54:48.212Z,14.70
2022-11-06T08:57:50.366Z,14.70
2022-11-06T09:00:52.639Z,14.70
2022-11-06T09:03:54.807Z,14.70
2022-11-06T09:06:58.423Z,14.70
2022-11-06T09:10:00.604Z,14.70
2022-11-06T09:13:02.855Z,14.70
2022-11-06T09:16:10.058Z,14.70
2022-11-06T09:19:15.079Z,14.70
2022-11-06T09:22:17.266Z,14.70
2022-11-06T09:25:20.415Z,14.70
2022-11-06T09:28:23.058Z,14.70
2022-11-06T09:31:25.540Z,14.70
2022-11-06T09:34:27.700Z,14.70
2022-11-06T09:37:29.880Z,14.70
2022-11-06T09:40:39.863Z,14.70
2022-11-06T09:44:17.546Z,14.70
2022-11-06T09:47:24.116Z,14.70
2022-11-06T09:50:32.423Z,14.70
2022-11-06T09:53:54.307Z,14.70
2022-11-06T09:57:04.875Z,14.70
2022-11-06T10:00:10.889Z,14.70
2022-11-06T10:03:35.723Z,14.70
2022-11-06T10:06:37.843Z,14.70
2022-11-06T10:09:39.983Z,14.60
2022-11-06T10:13:02.093Z,14.70
2022-11-06T10:16:33.958Z,14.60
2022-11-06T10:19:45.505Z,14.70
2022-11-06T10:23:11.382Z,14.70
2022-11-06T10:26:19.182Z,14.70
2022-11-06T10:29:39.420Z,14.70
2022-11-06T10:32:41.458Z,14.70
2022-11-06T10:35:51.364Z,14.70
2022-11-06T10:38:55.286Z,14.70
2022-11-06T10:42:21.990Z,14.60
2022-11-06T10:45:26.196Z,14.70
2022-11-06T10:48:35.549Z,14.70
2022-11-06T10:52:04.771Z,14.70
2022-11-06T10:55:51.440Z,14.70
2022-11-06T10:58:54.278Z,14.70
2022-11-06T11:01:56.583Z,14.70
2022-11-06T11:04:58.903Z,14.70
2022-11-06T11:08:01.140Z,14.70
2022-11-06T11:11:05.585Z,14.70
2022-11-06T11:14:21.980Z,14.70
2022-11-06T11:17:24.220Z,14.70
2022-11-06T11:20:32.782Z,14.70
2022-11-06T11:23:35.017Z,14.70
2022-11-06T11:27:01.283Z,14.70
2022-11-06T11:30:05.918Z,14.70
2022-11-06T11:33:13.794Z,14.70
2022-11-06T11:36:16.077Z,14.70
2022-11-06T11:39:21.432Z,14.70
2022-11-06T11:42:32.241Z,14.70
2022-11-06T11:45:34.427Z,14.70
2022-11-06T11:48:43.725Z,14.70
2022-11-06T11:51:48.174Z,14.70
2022-11-06T11:54:54.486Z,14.70
2022-11-06T11:58:00.100Z,14.70
2022-11-06T12:01:04.410Z,14.70
2022-11-06T12:04:18.119Z,14.70
2022-11-06T12:07:29.597Z,14.70
2022-11-06T12:10:39.721Z,14.70
2022-11-06T12:13:41.741Z,14.70
2022-11-06T12:16:48.366Z,14.70
2022-11-06T12:19:55.242Z,14.70
2022-11-06T12:22:59.852Z,14.70
2022-11-06T12:26:09.855Z,14.70
2022-11-06T12:29:14.960Z,14.70
2022-11-06T12:32:44.259Z,14.70
2022-11-06T12:35:53.703Z,14.70
2022-11-06T12:39:06.195Z,14.70
2022-11-06T12:42:12.812Z,14.70
2022-11-06T12:45:15.040Z,14.70
2022-11-06T12:48:54.705Z,14.70
2022-11-06T12:52:02.999Z,14.70
2022-11-06T12:55:35.594Z,14.70
2022-11-06T12:59:07.241Z,14.70
2022-11-06T13:02:18.392Z,14.70
2022-11-06T13:05:30.184Z,14.70
2022-11-06T13:08:54.802Z,14.70
2022-11-06T13:12:11.778Z,14.70
2022-11-06T13:15:27.197Z,14.70
2022-11-06T13:18:40.478Z,14.70
2022-11-06T13:21:51.381Z,14.70
2022-11-06T13:25:05.698Z,14.70
2022-11-06T13:28:17.077Z,14.70
2022-11-06T13:31:22.908Z,14.70
2022-11-06T13:34:29.248Z,14.70
2022-11-06T13:37:39.536Z,14.70
2022-11-06T13:40:44.324Z,14.70
2022-11-06T13:43:53.748Z,14.70
2022-11-06T13:47:07.515Z,14.70
2022-11-06T13:50:26.639Z,14.70
2022-11-06T13:53:59.504Z,14.70
2022-11-06T13:57:14.072Z,14.70
2022-11-06T14:00:23.222Z,14.80
2022-11-06T14:03:40.256Z,14.80
2022-11-06T14:06:43.304Z,14.70
2022-11-06T14:09:47.895Z,14.80
2022-11-06T14:12:50.931Z,14.80
2022-11-06T14:16:13.575Z,14.70
2022-11-06T14:19:21.780Z,14.80
2022-11-06T14:22:38.420Z,14.80
2022-11-06T14:25:40.753Z,14.80
2022-11-06T14:28:44.414Z,14.80
2022-11-06T14:32:11.269Z,14.80
2022-11-06T14:35:28.956Z,14.80
2022-11-06T14:38:35.831Z,14.80
2022-11-06T14:41:39.756Z,14.80
2022-11-06T14:44:45.732Z,14.80
2022-11-06T14:47:52.798Z,14.80
2022-11-06T14:50:55.820Z,14.80
2022-11-06T14:54:00.730Z,14.80
2022-11-06T14:57:04.095Z,14.80
2022-11-06T15:00:07.068Z,14.80
2022-11-06T15:03:21.048Z,14.80
2022-11-06T15:06:29.305Z,14.80
2022-11-06T15:09:37.538Z,14.80
2022-11-06T15:13:18.421Z,14.80
2022-11-06T15:16:22.769Z,14.80
2022-11-06T15:19:46.755Z,14.80
2022-11-06T15:22:58.529Z,14.80
2022-11-06T15:26:14.083Z,14.80
2022-11-06T15:29:16.209Z,14.80
2022-11-06T15:32:24.642Z,14.80
2022-11-06T15:35:31.305Z,14.80
2022-11-06T15:38:41.780Z,14.80
2022-11-06T15:41:44.704Z,14.80
2022-11-06T15:44:48.525Z,14.80
2022-11-06T15:48:02.484Z,14.80
2022-11-06T15:51:25.743Z,14.90
2022-11-06T15:54:48.704Z,14.90
2022-11-06T15:57:51.443Z,14.90
2022-11-06T16:00:53.630Z,14.90
2022-11-06T16:03:56.561Z,14.80
2022-11-06T16:07:00.923Z,14.90
2022-11-06T16:10:04.015Z,14.90
2022-11-06T16:13:07.333Z,14.90
2022-11-06T16:16:34.702Z,14.90
2022-11-06T16:19:39.019Z,14.90
2022-11-06T16:22:41.861Z,14.90
2022-11-06T16:25:44.225Z,14.90
2022-11-06T16:28:49.001Z,14.90
2022-11-06T16:32:08.211Z,14.90
2022-11-06T16:35:34.457Z,14.90
2022-11-06T16:38:43.697Z,14.90
2022-11-06T16:41:57.806Z,14.90
2022-11-06T16:45:09.057Z,14.90
2022-11-06T16:48:11.143Z,14.90
2022-11-06T16:51:28.718Z,14.90
2022-11-06T16:54:32.604Z,14.90
2022-11-06T16:57:45.509Z,14.90
2022-11-06T17:00:59.891Z,14.90
2022-11-06T17:04:03.149Z,14.90
2022-11-06T17:07:05.353Z,14.90
2022-11-06T17:10:25.711Z,14.90
2022-11-06T17:13:31.562Z,14.90
2022-11-06T17:16:56.330Z,14.90
2022-11-06T17:19:58.475Z,14.90
2022-11-06T17:23:00.643Z,14.90
2022-11-06T17:26:07.135Z,14.90
2022-11-06T17:29:10.670Z,14.90
2022-11-06T17:32:12.778Z,14.90
2022-11-06T17:35:15.004Z,14.90
2022-11-06T17:38:18.147Z,14.90
2022-11-06T17:41:32.798Z,14.90
2022-11-06T17:44:34.945Z,14.90
2022-11-06T17:47:37.140Z,14.90
2022-11-06T17:51:14.537Z,14.90
2022-11-06T17:54:18.052Z,14.90
2022-11-06T17:57:24.008Z,14.90
2022-11-06T18:00:26.642Z,14.90
2022-11-06T18:03:32.438Z,14.90
2022-11-06T18:06:38.452Z,14.90
2022-11-06T18:09:40.662Z,14.90
2022-11-06T18:12:42.809Z,14.90
2022-11-06T18:15:44.984Z,14.90
2022-11-06T18:18:48.418Z,14.90
2022-11-06T18:21:51.185Z,14.90
2022-11-06T18:24:53.303Z,14.90
2022-11-06T18:27:59.497Z,14.90
2022-11-06T18:31:04.648Z,14.90
2022-11-06T18:34:07.275Z,14.90
2022-11-06T18:37:09.492Z,14.90
2022-11-06T18:40:12.369Z,14.90
2022-11-06T18:43:14.478Z,14.90
2022-11-06T18:46:18.888Z,14.90
2022-11-06T18:49:21.097Z,14.90
2022-11-06T18:52:44.369Z,14.90
2022-11-06T18:55:46.285Z,14.90
2022-11-06T18:58:48.463Z,14.80
2022-11-06T19:01:50.731Z,14.90
2022-11-06T19:04:54.793Z,14.90
2022-11-06T19:08:00.312Z,14.90
2022-11-06T19:11:05.027Z,14.90
2022-11-06T19:14:07.230Z,14.90
2022-11-06T19:17:09.461Z,14.80
2022-11-06T19:20:14.865Z,14.90
2022-11-06T19:23:17.665Z,14.90
2022-11-06T19:26:35.629Z,14.90
2022-11-06T19:29:38.063Z,14.80
2022-11-06T19:32:40.400Z,14.80
2022-11-06T19:35:42.622Z,14.80
2022-11-06T19:38:44.732Z,14.80
2022-11-06T19:41:47.052Z,14.80
2022-11-06T19:44:49.241Z,14.80
2022-11-06T19:47:52.130Z,14.80
2022-11-06T19:50:59.595Z,14.80
2022-11-06T19:54:02.691Z,14.80
2022-11-06T19:57:28.552Z,14.80
2022-11-06T20:00:26.974Z,14.80
2022-11-06T20:03:29.190Z,14.80
2022-11-06T20:06:31.534Z,14.80
2022-11-06T20:09:34.745Z,14.80
2022-11-06T20:12:37.081Z,14.80
2022-11-06T20:15:39.303Z,14.80
2022-11-06T20:18:42.184Z,14.80
2022-11-06T20:21:44.480Z,14.80
2022-11-06T20:24:46.668Z,14.80
2022-11-06T20:27:49.287Z,14.80
2022-11-06T20:30:51.909Z,14.80
2022-11-06T20:33:54.066Z,14.80
2022-11-06T20:36:56.278Z,14.80
2022-11-06T20:39:58.595Z,14.80
2022-11-06T20:43:00.842Z,14.80
2022-11-06T20:46:04.119Z,14.80
2022-11-06T20:49:06.255Z,14.80
2022-11-06T20:52:15.915Z,14.80
2022-11-06T20:55:18.108Z,14.80
2022-11-06T20:58:20.848Z,14.80
2022-11-06T21:01:25.623Z,14.80
2022-11-06T21:04:27.995Z,14.80
2022-11-06T21:07:30.203Z,14.80
2022-11-06T21:10:32.403Z,14.70
2022-11-06T21:13:35.475Z,14.80
2022-11-06T21:16:38.125Z,14.70
2022-11-06T21:19:40.294Z,14.80
2022-11-06T21:22:42.501Z,14.70
2022-11-06T21:25:45.499Z,14.70
2022-11-06T21:28:48.083Z,14.80
2022-11-06T21:31:51.072Z,14.70
2022-11-06T21:34:53.387Z,14.70
2022-11-06T21:37:55.519Z,14.80
2022-11-06T21:40:57.681Z,14.70
2022-11-06T21:44:00.364Z,14.70
2022-11-06T21:47:02.534Z,14.70
2022-11-06T21:50:05.084Z,14.70
2022-11-06T21:53:25.665Z,14.70
2022-11-06T21:56:28.112Z,14.70
2022-11-06T21:59:30.695Z,14.70
2022-11-06T22:02:32.969Z,14.70
2022-11-06T22:05:35.241Z,14.70
2022-11-06T22:08:43.457Z,14.70
2022-11-06T22:11:45.607Z,14.70
2022-11-06T22:14:47.756Z,14.70
2022-11-06T22:17:50.027Z,14.70
2022-11-06T22:20:52.282Z,14.70
2022-11-06T22:23:54.492Z,14.70
2022-11-06T22:26:56.669Z,14.70
2022-11-06T22:29:59.275Z,14.70
2022-11-06T22:33:01.551Z,14.70
2022-11-06T22:36:14.468Z,14.70
2022-11-06T22:39:16.678Z,14.70
2022-11-06T22:42:18.893Z,14.70
2022-11-06T22:45:21.216Z,14.70
2022-11-06T22:48:23.471Z,14.70
2022-11-06T22:51:28.462Z,14.70
2022-11-06T22:54:30.714Z,14.70
2022-11-06T22:57:32.855Z,14.70
2022-11-06T23:00:35.089Z,14.60
2022-11-06T23:03:37.695Z,14.70
2022-11-06T23:06:39.830Z,14.60
2022-11-06T23:09:41.943Z,14.60
2022-11-06T23:12:44.112Z,14.60
2022-11-06T23:15:46.612Z,14.60
2022-11-06T23:18:49.220Z,14.60
2022-11-06T23:21:52.666Z,14.60
2022-11-06T23:24:56.346Z,14.60
2022-11-06T23:28:00.299Z,14.60
2022-11-06T23:31:07.149Z,14.60
2022-11-06T23:34:09.411Z,14.60
2022-11-06T23:37:11.655Z,14.60
2022-11-06T23:43:50.798Z,14.60
2022-11-06T23:46:53.246Z,14.60
2022-11-06T23:49:55.659Z,14.60
2022-11-06T23:52:57.861Z,14.60
2022-11-06T23:56:05.874Z,14.60
2022-11-06T23:59:08.307Z,14.60
